Time;durP1;ratioP1;P1;durP2;ratioP2;P2;SDS_P1;SDS_P2;PMS_P1;PMS_P2;Temp;Humidity;BMP_temperature;BMP_pressure;BME280_temperature;BME280_humidity;BME280_pressure;Samples;Min_cycle;Max_cycle;Signal;HPM_P1;HPM_P2
2021/06/14 00:01:07;;;;;;;10.23;4.22;;;;;;;;;;5012674;28;20084;-47
2021/06/14 00:03:33;;;;;;;7.53;3.60;;;;;;;;;;5024834;28;20041;-47
2021/06/14 00:05:59;;;;;;;8.38;4.10;;;;;;;;;;5026186;28;20030;-47
2021/06/14 00:08:26;;;;;;;8.27;3.90;;;;;;;;;;5022571;28;20029;-47
2021/06/14 00:10:54;;;;;;;8.40;3.88;;;;;;;;;;5011882;28;20053;-47
2021/06/14 00:13:21;;;;;;;8.52;3.90;;;;;;;;;;5027359;28;20037;-47
2021/06/14 00:15:48;;;;;;;7.82;3.80;;;;;;;;;;5021070;28;20041;-47
2021/06/14 00:18:14;;;;;;;10.13;4.82;;;;;;;;;;5012451;28;20068;-47
2021/06/14 00:20:41;;;;;;;7.70;4.00;;;;;;;;;;5018451;28;20358;-47
2021/06/14 00:23:08;;;;;;;11.55;4.28;;;;;;;;;;5016903;28;20113;-47
2021/06/14 00:25:34;;;;;;;12.00;3.63;;;;;;;;;;5016927;28;20030;-49
2021/06/14 00:28:01;;;;;;;8.52;3.67;;;;;;;;;;5015185;28;20030;-47
2021/06/14 00:30:29;;;;;;;7.57;3.35;;;;;;;;;;5014973;28;20026;-47
2021/06/14 00:32:55;;;;;;;7.47;3.80;;;;;;;;;;5020625;28;20050;-47
2021/06/14 00:35:21;;;;;;;7.45;4.22;;;;;;;;;;5015245;28;20108;-49
2021/06/14 00:37:47;;;;;;;7.60;3.95;;;;;;;;;;5015013;28;20034;-47
2021/06/14 00:40:13;;;;;;;7.40;3.85;;;;;;;;;;5016851;28;20433;-48
2021/06/14 00:42:39;;;;;;;7.57;3.95;;;;;;;;;;5014785;28;20096;-47
2021/06/14 00:45:07;;;;;;;8.43;3.78;;;;;;;;;;5014139;28;20092;-47
2021/06/14 00:47:33;;;;;;;10.68;3.65;;;;;;;;;;5014781;28;20030;-47
2021/06/14 00:49:59;;;;;;;7.60;3.80;;;;;;;;;;5019607;28;20025;-47
2021/06/14 00:52:25;;;;;;;8.60;4.00;;;;;;;;;;5018085;28;20034;-47
2021/06/14 00:54:51;;;;;;;9.82;4.25;;;;;;;;;;5014541;28;20133;-47
2021/06/14 00:57:17;;;;;;;7.75;4.45;;;;;;;;;;5014519;28;20037;-47
2021/06/14 00:59:43;;;;;;;8.80;4.30;;;;;;;;;;5014306;28;20505;-47
2021/06/14 01:02:09;;;;;;;8.30;4.38;;;;;;;;;;5016517;28;20112;-47
2021/06/14 01:04:35;;;;;;;9.40;4.53;;;;;;;;;;5013859;28;20036;-47
2021/06/14 01:07:01;;;;;;;10.77;4.90;;;;;;;;;;5014213;28;20030;-47
2021/06/14 01:09:27;;;;;;;10.50;4.20;;;;;;;;;;5014340;28;20478;-47
2021/06/14 01:11:54;;;;;;;7.65;4.25;;;;;;;;;;5014127;28;20029;-48
2021/06/14 01:14:33;;;;;;;7.32;4.07;;;;;;;;;;5013543;28;20030;-47
2021/06/14 01:17:04;;;;;;;5.85;3.83;;;;;;;;;;5014234;28;20036;-47
2021/06/14 01:19:51;;;;;;;11.10;4.75;;;;;;;;;;5014131;28;20112;-47
2021/06/14 01:22:29;;;;;;;9.45;4.72;;;;;;;;;;5013204;28;20485;-48
2021/06/14 01:25:00;;;;;;;9.70;5.10;;;;;;;;;;5016435;28;20083;-47
2021/06/14 01:27:34;;;;;;;9.82;4.20;;;;;;;;;;5018690;28;20533;-47
2021/06/14 01:30:00;;;;;;;8.02;3.88;;;;;;;;;;5013620;28;20036;-47
2021/06/14 01:32:26;;;;;;;7.32;4.15;;;;;;;;;;5016860;28;20044;-47
2021/06/14 01:34:52;;;;;;;9.27;4.15;;;;;;;;;;5020839;28;20112;-47
2021/06/14 01:37:18;;;;;;;10.75;4.78;;;;;;;;;;5012294;28;20141;-47
2021/06/14 01:39:46;;;;;;;11.55;4.53;;;;;;;;;;5014172;28;20495;-47
2021/06/14 01:42:13;;;;;;;9.48;4.05;;;;;;;;;;5011475;28;20034;-47
2021/06/14 01:44:40;;;;;;;6.70;4.10;;;;;;;;;;5013021;28;20145;-47
2021/06/14 01:47:07;;;;;;;9.55;4.40;;;;;;;;;;5013080;28;20071;-47
2021/06/14 01:49:33;;;;;;;8.55;4.30;;;;;;;;;;5013447;28;20088;-47
2021/06/14 01:51:59;;;;;;;10.13;4.53;;;;;;;;;;5015755;28;20371;-47
2021/06/14 01:54:25;;;;;;;7.57;3.90;;;;;;;;;;5013019;28;20432;-47
2021/06/14 01:56:52;;;;;;;9.02;4.43;;;;;;;;;;5012909;28;20423;-47
2021/06/14 01:59:23;;;;;;;10.40;4.10;;;;;;;;;;5013584;28;20104;-49
2021/06/14 02:01:49;;;;;;;6.90;4.05;;;;;;;;;;5009120;28;20040;-48
2021/06/14 02:04:16;;;;;;;9.15;4.18;;;;;;;;;;5016775;28;20508;-47
2021/06/14 02:06:42;;;;;;;8.93;4.15;;;;;;;;;;5013431;28;20365;-47
2021/06/14 02:09:09;;;;;;;11.27;4.22;;;;;;;;;;5013170;28;20409;-49
2021/06/14 02:11:37;;;;;;;9.18;4.32;;;;;;;;;;5013193;28;20102;-47
2021/06/14 02:14:03;;;;;;;7.05;4.65;;;;;;;;;;5016081;28;20037;-47
2021/06/14 02:16:29;;;;;;;9.90;4.65;;;;;;;;;;5012743;28;20112;-47
2021/06/14 02:18:56;;;;;;;9.25;4.43;;;;;;;;;;5013036;28;20029;-48
2021/06/14 02:21:22;;;;;;;11.05;4.03;;;;;;;;;;5012705;28;20036;-48
2021/06/14 02:23:49;;;;;;;10.90;4.80;;;;;;;;;;5019182;28;21677;-47
2021/06/14 02:26:15;;;;;;;7.25;3.78;;;;;;;;;;5012746;28;20030;-48
2021/06/14 02:28:41;;;;;;;6.80;3.92;;;;;;;;;;5012211;28;20048;-47
2021/06/14 02:31:08;;;;;;;6.53;3.85;;;;;;;;;;5012546;28;20416;-47
2021/06/14 02:33:34;;;;;;;8.15;4.30;;;;;;;;;;5012769;28;20037;-49
2021/06/14 02:36:00;;;;;;;7.97;4.43;;;;;;;;;;5012052;28;20430;-47
2021/06/14 02:38:27;;;;;;;7.13;4.00;;;;;;;;;;5012375;28;20553;-47
2021/06/14 02:40:53;;;;;;;7.10;4.13;;;;;;;;;;5012452;28;20029;-47
2021/06/14 02:43:21;;;;;;;10.10;5.00;;;;;;;;;;5012500;28;20076;-48
2021/06/14 02:45:48;;;;;;;7.72;3.38;;;;;;;;;;5011737;28;20028;-47
2021/06/14 02:48:14;;;;;;;7.32;3.65;;;;;;;;;;5013886;28;20513;-47
2021/06/14 02:50:40;;;;;;;9.07;4.20;;;;;;;;;;5011889;28;20026;-47
2021/06/14 02:53:11;;;;;;;11.73;4.45;;;;;;;;;;5012181;28;20461;-47
2021/06/14 02:55:44;;;;;;;7.03;3.53;;;;;;;;;;5012596;28;20101;-48
2021/06/14 02:58:10;;;;;;;8.68;3.97;;;;;;;;;;5015318;28;20386;-47
2021/06/14 03:00:36;;;;;;;7.70;4.07;;;;;;;;;;5011942;28;20437;-47
2021/06/14 03:03:04;;;;;;;9.68;4.15;;;;;;;;;;5011421;28;20030;-48
2021/06/14 03:05:31;;;;;;;10.55;5.03;;;;;;;;;;5011788;28;20033;-47
2021/06/14 03:07:58;;;;;;;12.13;4.00;;;;;;;;;;5012457;28;20030;-49
2021/06/14 03:10:24;;;;;;;8.02;4.10;;;;;;;;;;5017022;28;20113;-48
2021/06/14 03:12:52;;;;;;;9.55;4.22;;;;;;;;;;5012131;28;20171;-47
2021/06/14 03:15:18;;;;;;;7.45;4.13;;;;;;;;;;5011801;28;20025;-47
2021/06/14 03:17:44;;;;;;;8.40;4.22;;;;;;;;;;5012223;28;20105;-47
2021/06/14 03:20:11;;;;;;;7.25;4.00;;;;;;;;;;5015436;28;20449;-47
2021/06/14 03:22:39;;;;;;;7.40;4.10;;;;;;;;;;5010579;28;20026;-48
2021/06/14 03:25:06;;;;;;;10.90;4.38;;;;;;;;;;5016474;28;20492;-47
2021/06/14 03:27:32;;;;;;;7.85;4.18;;;;;;;;;;5015928;28;20105;-47
2021/06/14 03:29:59;;;;;;;7.28;4.00;;;;;;;;;;5011306;28;20029;-47
2021/06/14 03:32:26;;;;;;;8.68;3.90;;;;;;;;;;5010876;28;20052;-48
2021/06/14 03:34:53;;;;;;;8.88;4.20;;;;;;;;;;5012250;28;20026;-48
2021/06/14 03:37:19;;;;;;;9.15;4.50;;;;;;;;;;5011537;28;20116;-47
2021/06/14 03:39:45;;;;;;;9.18;4.20;;;;;;;;;;5012137;28;20065;-48
2021/06/14 03:42:16;;;;;;;9.98;4.43;;;;;;;;;;5011714;28;20117;-47
2021/06/14 03:44:42;;;;;;;6.10;3.97;;;;;;;;;;5010150;28;20057;-48
2021/06/14 03:47:08;;;;;;;6.35;4.03;;;;;;;;;;5013165;28;20424;-47
2021/06/14 03:49:34;;;;;;;7.85;3.83;;;;;;;;;;5018920;28;20104;-47
2021/06/14 03:52:00;;;;;;;9.13;4.10;;;;;;;;;;5020352;28;20114;-48
2021/06/14 03:54:26;;;;;;;11.05;4.72;;;;;;;;;;5019129;28;20033;-47
2021/06/14 03:56:52;;;;;;;7.80;4.03;;;;;;;;;;5014687;28;20038;-47
2021/06/14 03:59:18;;;;;;;11.10;4.40;;;;;;;;;;5023692;28;20034;-47
2021/06/14 04:01:44;;;;;;;8.63;4.15;;;;;;;;;;5015169;28;20041;-47
2021/06/14 04:06:42;;;;;;;7.97;4.05;;;;;;;;;;5017571;28;20041;-47
2021/06/14 04:09:08;;;;;;;9.20;4.97;;;;;;;;;;5027798;28;20037;-47
2021/06/14 04:11:34;;;;;;;9.18;4.88;;;;;;;;;;5029532;28;20097;-47
2021/06/14 04:14:00;;;;;;;10.73;4.35;;;;;;;;;;5014472;28;20029;-48
2021/06/14 04:16:26;;;;;;;7.70;4.20;;;;;;;;;;5027221;28;20051;-47
2021/06/14 04:18:52;;;;;;;9.30;4.45;;;;;;;;;;5025949;28;20029;-47
2021/06/14 04:21:18;;;;;;;10.02;4.15;;;;;;;;;;5025036;28;20034;-48
2021/06/14 04:23:44;;;;;;;6.82;4.15;;;;;;;;;;5029605;28;20037;-47
2021/06/14 04:26:11;;;;;;;8.93;4.63;;;;;;;;;;5027044;28;20049;-48
2021/06/14 04:28:37;;;;;;;8.20;4.53;;;;;;;;;;5017950;28;20042;-47
2021/06/14 04:31:04;;;;;;;8.88;4.75;;;;;;;;;;5014092;28;20026;-47
2021/06/14 04:33:30;;;;;;;8.40;5.28;;;;;;;;;;5025089;28;20029;-47
2021/06/14 04:35:56;;;;;;;10.75;5.25;;;;;;;;;;5024079;28;20362;-47
2021/06/14 04:38:21;;;;;;;13.30;4.75;;;;;;;;;;5014675;28;20014;-47
2021/06/14 04:40:47;;;;;;;7.28;4.35;;;;;;;;;;5016173;28;20030;-47
2021/06/14 04:43:13;;;;;;;9.23;4.85;;;;;;;;;;5015675;28;20489;-47
2021/06/14 04:45:39;;;;;;;11.82;5.03;;;;;;;;;;5016623;28;20037;-47
2021/06/14 04:48:05;;;;;;;7.82;4.43;;;;;;;;;;5017353;28;20041;-47
2021/06/14 04:50:31;;;;;;;9.82;4.40;;;;;;;;;;5010046;28;20385;-47
2021/06/14 04:52:57;;;;;;;9.43;4.93;;;;;;;;;;5016173;28;20034;-47
2021/06/14 04:55:26;;;;;;;9.95;4.95;;;;;;;;;;5015081;28;20466;-47
2021/06/14 04:57:52;;;;;;;9.20;5.15;;;;;;;;;;5019484;28;20029;-47
2021/06/14 05:00:19;;;;;;;10.52;4.65;;;;;;;;;;5013460;28;21564;-48
2021/06/14 05:02:45;;;;;;;9.00;4.57;;;;;;;;;;5015243;28;20029;-49
2021/06/14 05:05:11;;;;;;;9.07;4.65;;;;;;;;;;5023922;28;20040;-47
2021/06/14 05:07:37;;;;;;;9.75;5.07;;;;;;;;;;5019075;28;20370;-47
2021/06/14 05:10:04;;;;;;;7.50;4.07;;;;;;;;;;5025703;28;20067;-47
2021/06/14 05:12:30;;;;;;;9.98;4.60;;;;;;;;;;5015893;28;20100;-47
2021/06/14 05:14:56;;;;;;;9.60;4.63;;;;;;;;;;5018425;28;20061;-47
2021/06/14 05:17:22;;;;;;;8.93;4.40;;;;;;;;;;5022087;28;20026;-47
2021/06/14 05:19:48;;;;;;;10.65;5.05;;;;;;;;;;5021057;28;20117;-48
2021/06/14 05:22:14;;;;;;;7.80;4.70;;;;;;;;;;5020516;28;20056;-47
2021/06/14 05:24:41;;;;;;;7.35;4.07;;;;;;;;;;5020152;28;20025;-47
2021/06/14 05:27:07;;;;;;;8.18;3.92;;;;;;;;;;5024262;28;20035;-47
2021/06/14 05:29:33;;;;;;;8.75;5.15;;;;;;;;;;5018945;28;20030;-48
2021/06/14 05:31:59;;;;;;;10.60;4.38;;;;;;;;;;5023928;28;20064;-48
2021/06/14 05:34:25;;;;;;;12.48;5.15;;;;;;;;;;5028751;28;20477;-47
2021/06/14 05:36:51;;;;;;;7.85;3.83;;;;;;;;;;5018417;28;20117;-47
2021/06/14 05:39:18;;;;;;;9.15;4.47;;;;;;;;;;5015652;28;20033;-47
2021/06/14 05:41:44;;;;;;;7.63;3.88;;;;;;;;;;5015181;28;20042;-48
2021/06/14 05:44:10;;;;;;;7.25;3.63;;;;;;;;;;5020750;28;20064;-47
2021/06/14 05:46:36;;;;;;;7.47;4.00;;;;;;;;;;5015804;28;20486;-48
2021/06/14 05:49:03;;;;;;;10.93;4.05;;;;;;;;;;5023228;28;20052;-47
2021/06/14 05:51:29;;;;;;;9.57;3.65;;;;;;;;;;5019268;28;20026;-47
2021/06/14 05:53:56;;;;;;;11.50;4.75;;;;;;;;;;5028729;28;20037;-47
2021/06/14 05:56:23;;;;;;;12.63;3.95;;;;;;;;;;5020901;28;20484;-47
2021/06/14 05:58:49;;;;;;;7.68;3.83;;;;;;;;;;5027194;28;20423;-49
2021/06/14 06:01:15;;;;;;;7.65;3.35;;;;;;;;;;5021769;28;20057;-48
2021/06/14 06:03:41;;;;;;;8.80;3.35;;;;;;;;;;5032791;28;20061;-47
2021/06/14 06:06:07;;;;;;;8.13;3.45;;;;;;;;;;5017365;28;20505;-47
2021/06/14 06:08:33;;;;;;;9.95;4.13;;;;;;;;;;5028763;28;20147;-48
2021/06/14 06:10:59;;;;;;;7.38;3.50;;;;;;;;;;5019540;28;20033;-49
2021/06/14 06:13:25;;;;;;;7.97;3.67;;;;;;;;;;5026155;28;20108;-48
2021/06/14 06:15:51;;;;;;;13.48;3.78;;;;;;;;;;5026690;28;20424;-48
2021/06/14 06:18:17;;;;;;;12.30;4.55;;;;;;;;;;5026190;28;20037;-49
2021/06/14 06:20:43;;;;;;;6.85;4.10;;;;;;;;;;5023364;28;20034;-48
2021/06/14 06:23:09;;;;;;;10.68;3.88;;;;;;;;;;5013513;28;20465;-48
2021/06/14 06:25:35;;;;;;;12.20;3.70;;;;;;;;;;5015032;28;20033;-49
2021/06/14 06:28:01;;;;;;;7.75;3.70;;;;;;;;;;5012484;28;20525;-50
2021/06/14 06:30:28;;;;;;;7.63;3.60;;;;;;;;;;5012209;28;20366;-50
2021/06/14 06:32:55;;;;;;;9.80;4.63;;;;;;;;;;5014953;28;20041;-48
2021/06/14 06:35:21;;;;;;;11.15;3.97;;;;;;;;;;5012529;28;20041;-49
2021/06/14 06:37:47;;;;;;;10.82;4.43;;;;;;;;;;5014696;28;20133;-52
2021/06/14 06:40:13;;;;;;;10.63;5.00;;;;;;;;;;5012583;28;20389;-47
2021/06/14 06:42:39;;;;;;;8.43;3.90;;;;;;;;;;5012622;28;20030;-48
2021/06/14 06:45:06;;;;;;;7.72;3.80;;;;;;;;;;5012568;28;20094;-47
2021/06/14 06:47:32;;;;;;;11.30;4.18;;;;;;;;;;5011822;28;20087;-49
2021/06/14 06:49:58;;;;;;;10.48;3.92;;;;;;;;;;5011593;28;20038;-49
2021/06/14 06:52:24;;;;;;;8.38;4.40;;;;;;;;;;5011386;28;20478;-48
2021/06/14 06:54:50;;;;;;;9.32;3.63;;;;;;;;;;5011722;28;20057;-48
2021/06/14 06:57:17;;;;;;;15.02;5.03;;;;;;;;;;5012799;28;20041;-48
2021/06/14 06:59:43;;;;;;;6.97;3.75;;;;;;;;;;5013858;28;20064;-49
2021/06/14 07:02:09;;;;;;;10.00;3.72;;;;;;;;;;5017600;28;20121;-50
2021/06/14 07:04:37;;;;;;;9.27;3.50;;;;;;;;;;5019982;28;20037;-50
2021/06/14 07:07:03;;;;;;;7.10;3.08;;;;;;;;;;5017043;28;20026;-53
2021/06/14 07:09:29;;;;;;;7.68;3.45;;;;;;;;;;5013134;28;20397;-48
2021/06/14 07:11:56;;;;;;;8.43;3.42;;;;;;;;;;5010924;28;20034;-48
2021/06/14 07:14:22;;;;;;;6.85;2.72;;;;;;;;;;5015940;28;20469;-50
2021/06/14 07:16:48;;;;;;;6.85;2.63;;;;;;;;;;5019617;28;20057;-50
2021/06/14 07:19:14;;;;;;;6.60;3.33;;;;;;;;;;5014773;28;20080;-48
2021/06/14 07:21:40;;;;;;;6.65;3.20;;;;;;;;;;5010097;28;20045;-50
2021/06/14 07:24:07;;;;;;;5.60;2.83;;;;;;;;;;5017361;28;20040;-49
2021/06/14 07:26:33;;;;;;;8.25;2.72;;;;;;;;;;5017960;28;20018;-52
2021/06/14 07:29:00;;;;;;;6.47;2.85;;;;;;;;;;5016026;28;20034;-50
2021/06/14 07:31:26;;;;;;;7.35;2.75;;;;;;;;;;5019392;28;20112;-50
2021/06/14 07:33:52;;;;;;;9.95;3.35;;;;;;;;;;5012006;28;20113;-51
2021/06/14 07:36:18;;;;;;;6.50;2.88;;;;;;;;;;5010992;28;20114;-52
2021/06/14 07:38:44;;;;;;;7.28;2.67;;;;;;;;;;5014401;28;20124;-48
2021/06/14 07:41:11;;;;;;;7.72;3.10;;;;;;;;;;5012851;28;20038;-49
2021/06/14 07:43:37;;;;;;;8.65;3.13;;;;;;;;;;5016981;28;20100;-49
2021/06/14 07:46:03;;;;;;;9.50;2.80;;;;;;;;;;5024537;28;20032;-48
2021/06/14 07:48:29;;;;;;;7.38;2.65;;;;;;;;;;5035043;28;20033;-48
2021/06/14 07:50:55;;;;;;;8.68;2.83;;;;;;;;;;5034909;28;20037;-48
2021/06/14 07:53:22;;;;;;;5.97;2.35;;;;;;;;;;5022166;28;20039;-48
2021/06/14 07:55:48;;;;;;;6.53;2.90;;;;;;;;;;5029738;28;20055;-48
2021/06/14 07:58:14;;;;;;;5.45;2.33;;;;;;;;;;5020806;28;20037;-50
2021/06/14 08:00:41;;;;;;;8.15;3.40;;;;;;;;;;5022316;28;20072;-50
2021/06/14 08:03:07;;;;;;;7.32;2.50;;;;;;;;;;5018744;28;20041;-50
2021/06/14 08:05:33;;;;;;;5.97;2.63;;;;;;;;;;5014383;28;20034;-51
2021/06/14 08:07:59;;;;;;;4.40;2.35;;;;;;;;;;5009505;28;20026;-51
2021/06/14 08:10:25;;;;;;;4.80;2.13;;;;;;;;;;5015397;28;20466;-53
2021/06/14 08:12:52;;;;;;;6.35;2.45;;;;;;;;;;5015240;28;20504;-49
2021/06/14 08:15:23;;;;;;;5.32;2.50;;;;;;;;;;5015535;28;20029;-49
2021/06/14 08:17:51;;;;;;;4.53;2.40;;;;;;;;;;5016720;28;20104;-48
2021/06/14 08:25:31;;;;;;;8.25;2.95;;;;;;;;;;5016733;28;20088;-51
2021/06/14 08:27:58;;;;;;;7.03;2.40;;;;;;;;;;5011781;28;20034;-49
2021/06/14 08:30:24;;;;;;;6.70;2.50;;;;;;;;;;5014114;28;20520;-50
2021/06/14 08:32:51;;;;;;;6.43;2.40;;;;;;;;;;5013305;28;20432;-48
2021/06/14 08:35:18;;;;;;;6.15;2.17;;;;;;;;;;5026300;28;20025;-50
2021/06/14 08:37:45;;;;;;;6.00;1.95;;;;;;;;;;5017040;28;20105;-52
2021/06/14 08:40:12;;;;;;;6.82;2.85;;;;;;;;;;5019996;28;20104;-51
2021/06/14 08:42:38;;;;;;;9.73;2.75;;;;;;;;;;5017601;28;20036;-48
2021/06/14 08:45:05;;;;;;;6.35;2.55;;;;;;;;;;5024749;28;20045;-50
2021/06/14 08:47:31;;;;;;;9.88;2.40;;;;;;;;;;5024866;28;20096;-49
2021/06/14 08:49:57;;;;;;;5.95;2.50;;;;;;;;;;5032688;28;20113;-50
2021/06/14 08:52:24;;;;;;;6.45;1.95;;;;;;;;;;5021375;28;20425;-49
2021/06/14 08:54:51;;;;;;;5.40;2.40;;;;;;;;;;5024982;28;20034;-52
2021/06/14 08:57:17;;;;;;;8.45;2.10;;;;;;;;;;5028905;28;20021;-49
2021/06/14 08:59:44;;;;;;;5.82;2.40;;;;;;;;;;5032573;28;20083;-49
2021/06/14 09:02:11;;;;;;;6.47;2.53;;;;;;;;;;5022536;28;20113;-49
2021/06/14 09:04:37;;;;;;;6.30;2.42;;;;;;;;;;5014067;28;20122;-48
2021/06/14 09:07:03;;;;;;;4.50;2.17;;;;;;;;;;5012752;28;20821;-48
2021/06/14 09:09:30;;;;;;;6.13;2.10;;;;;;;;;;5030762;28;20013;-53
2021/06/14 09:11:58;;;;;;;6.22;1.88;;;;;;;;;;5015114;28;20500;-48
2021/06/14 09:14:27;;;;;;;8.63;2.65;;;;;;;;;;5016590;28;20022;-48
2021/06/14 09:16:57;;;;;;;3.75;1.70;;;;;;;;;;5022171;28;20029;-48
2021/06/14 09:19:34;;;;;;;5.50;2.30;;;;;;;;;;5025969;28;20038;-48
2021/06/14 09:22:13;;;;;;;6.68;2.80;;;;;;;;;;5018390;28;20038;-49
2021/06/14 09:24:39;;;;;;;4.50;2.30;;;;;;;;;;5018274;28;20096;-48
2021/06/14 09:27:05;;;;;;;8.50;2.03;;;;;;;;;;5026855;28;20018;-50
2021/06/14 09:29:31;;;;;;;5.53;1.85;;;;;;;;;;5017199;28;20030;-54
2021/06/14 09:32:00;;;;;;;4.43;2.00;;;;;;;;;;5021857;28;20048;-48
2021/06/14 09:34:36;;;;;;;7.22;2.35;;;;;;;;;;5033148;28;20465;-50
2021/06/14 09:37:04;;;;;;;3.42;1.80;;;;;;;;;;5021037;28;20493;-48
2021/06/14 09:39:41;;;;;;;5.00;1.77;;;;;;;;;;5025946;28;20025;-52
2021/06/14 09:42:13;;;;;;;4.75;2.38;;;;;;;;;;5021119;28;20034;-50
2021/06/14 09:44:39;;;;;;;4.20;2.08;;;;;;;;;;5025065;28;20486;-48
2021/06/14 09:47:06;;;;;;;4.75;1.80;;;;;;;;;;5021564;28;20479;-49
2021/06/14 09:49:33;;;;;;;6.18;2.00;;;;;;;;;;5019328;28;20030;-51
2021/06/14 09:51:59;;;;;;;4.47;1.98;;;;;;;;;;5017042;28;20417;-48
2021/06/14 09:54:29;;;;;;;6.78;1.88;;;;;;;;;;5025402;28;20057;-48
2021/06/14 09:56:56;;;;;;;4.53;1.90;;;;;;;;;;5022064;28;20132;-49
2021/06/14 09:59:26;;;;;;;6.95;1.58;;;;;;;;;;5032413;28;20044;-49
2021/06/14 10:02:03;;;;;;;5.07;2.08;;;;;;;;;;5024269;28;20041;-48
2021/06/14 10:04:30;;;;;;;9.82;1.77;;;;;;;;;;5011754;28;20029;-48
2021/06/14 10:06:58;;;;;;;5.25;1.92;;;;;;;;;;5019816;28;20386;-47
2021/06/14 10:09:24;;;;;;;7.03;1.70;;;;;;;;;;5031918;28;20155;-48
2021/06/14 10:11:50;;;;;;;5.05;1.60;;;;;;;;;;5024251;28;20121;-47
2021/06/14 10:14:18;;;;;;;2.90;1.60;;;;;;;;;;5031906;28;20093;-48
2021/06/14 10:16:45;;;;;;;3.50;1.33;;;;;;;;;;5022895;28;20095;-49
2021/06/14 10:19:12;;;;;;;3.78;1.55;;;;;;;;;;5022183;28;20021;-48
2021/06/14 10:21:39;;;;;;;6.50;2.13;;;;;;;;;;5021894;28;20052;-48
2021/06/14 10:24:07;;;;;;;8.23;1.92;;;;;;;;;;5027865;28;20088;-48
2021/06/14 10:26:33;;;;;;;3.83;1.55;;;;;;;;;;5023862;28;20022;-48
2021/06/14 10:28:59;;;;;;;7.40;2.22;;;;;;;;;;5027999;28;20013;-47
2021/06/14 10:31:25;;;;;;;6.03;1.65;;;;;;;;;;5016139;28;20041;-48
2021/06/14 10:33:52;;;;;;;6.47;2.00;;;;;;;;;;5016247;28;20026;-48
2021/06/14 10:36:22;;;;;;;8.43;2.47;;;;;;;;;;5027751;28;20112;-48
2021/06/14 10:38:49;;;;;;;6.82;2.05;;;;;;;;;;5023813;28;20021;-54
2021/06/14 10:41:15;;;;;;;2.90;1.38;;;;;;;;;;5012115;28;20033;-53
2021/06/14 10:43:41;;;;;;;6.43;1.63;;;;;;;;;;5015064;28;20462;-51
2021/06/14 10:46:11;;;;;;;5.57;1.70;;;;;;;;;;5026752;28;20702;-49
2021/06/14 10:48:37;;;;;;;6.32;1.88;;;;;;;;;;5026588;28;20656;-48
2021/06/14 10:51:05;;;;;;;8.68;1.95;;;;;;;;;;5021863;28;20116;-49
2021/06/14 10:53:32;;;;;;;5.65;1.65;;;;;;;;;;5028091;28;20109;-48
2021/06/14 10:56:01;;;;;;;4.63;1.52;;;;;;;;;;5019079;28;20036;-48
2021/06/14 10:58:29;;;;;;;4.45;1.70;;;;;;;;;;5028568;28;20588;-49
2021/06/14 11:01:00;;;;;;;5.35;1.73;;;;;;;;;;5028649;28;20049;-49
2021/06/14 11:03:36;;;;;;;5.10;1.60;;;;;;;;;;5027349;28;20032;-48
2021/06/14 11:06:02;;;;;;;4.60;1.58;;;;;;;;;;5010142;28;20108;-48
2021/06/14 11:08:30;;;;;;;4.07;1.60;;;;;;;;;;5018877;28;20022;-48
2021/06/14 11:11:03;;;;;;;4.65;1.77;;;;;;;;;;5026976;28;20029;-48
2021/06/14 11:13:29;;;;;;;5.68;2.13;;;;;;;;;;5031054;28;20020;-50
2021/06/14 11:15:57;;;;;;;4.53;1.50;;;;;;;;;;5030580;28;20018;-51
2021/06/14 11:18:30;;;;;;;5.00;1.92;;;;;;;;;;5020999;28;20037;-47
2021/06/14 11:21:07;;;;;;;7.95;1.88;;;;;;;;;;5030628;28;20393;-52
2021/06/14 11:23:33;;;;;;;7.80;1.77;;;;;;;;;;5030871;28;20025;-51
2021/06/14 11:25:59;;;;;;;8.38;1.67;;;;;;;;;;5024753;28;20454;-48
2021/06/14 11:28:39;;;;;;;7.53;2.20;;;;;;;;;;5014379;28;20494;-48
2021/06/14 11:31:25;;;;;;;5.95;1.75;;;;;;;;;;5010045;28;20088;-51
2021/06/14 11:33:52;;;;;;;9.35;1.83;;;;;;;;;;5017112;28;20052;-50
2021/06/14 11:36:22;;;;;;;7.13;1.30;;;;;;;;;;5021538;28;20057;-50
2021/06/14 11:38:49;;;;;;;4.47;1.45;;;;;;;;;;5025951;28;20037;-48
2021/06/14 11:41:25;;;;;;;3.67;1.38;;;;;;;;;;5016388;28;20025;-48
2021/06/14 11:44:11;;;;;;;3.47;1.33;;;;;;;;;;5028353;28;20099;-48
2021/06/14 11:46:43;;;;;;;6.88;1.63;;;;;;;;;;5026899;28;20025;-52
2021/06/14 11:49:10;;;;;;;3.55;1.55;;;;;;;;;;5018561;28;20532;-47
2021/06/14 11:51:36;;;;;;;7.88;1.77;;;;;;;;;;5012448;28;20020;-48
2021/06/14 11:54:03;;;;;;;6.18;1.73;;;;;;;;;;5026926;28;20040;-48
2021/06/14 11:56:33;;;;;;;4.97;1.50;;;;;;;;;;5011970;28;20125;-48
2021/06/14 11:58:59;;;;;;;4.10;1.42;;;;;;;;;;5015376;28;20038;-48
2021/06/14 12:01:29;;;;;;;8.88;1.63;;;;;;;;;;5023025;28;20493;-50
2021/06/14 12:03:55;;;;;;;5.93;1.30;;;;;;;;;;5025011;28;20034;-49
2021/06/14 12:06:22;;;;;;;5.30;1.67;;;;;;;;;;5012564;28;20108;-49
2021/06/14 12:08:49;;;;;;;1.90;1.10;;;;;;;;;;5018326;28;20034;-50
2021/06/14 12:11:15;;;;;;;4.28;1.30;;;;;;;;;;5013762;28;20030;-49
2021/06/14 12:13:41;;;;;;;5.53;1.60;;;;;;;;;;5024301;28;20112;-51
2021/06/14 12:16:07;;;;;;;3.55;1.40;;;;;;;;;;5028045;28;20029;-50
2021/06/14 12:18:33;;;;;;;2.78;1.33;;;;;;;;;;5020973;28;20036;-50
2021/06/14 12:21:04;;;;;;;5.63;1.52;;;;;;;;;;5013121;28;20037;-48
2021/06/14 12:23:35;;;;;;;3.33;1.40;;;;;;;;;;5019530;28;20045;-53
2021/06/14 12:26:05;;;;;;;3.67;1.20;;;;;;;;;;5022438;28;20060;-48
2021/06/14 12:28:30;;;;;;;5.00;1.20;;;;;;;;;;5018976;28;20052;-49
2021/06/14 12:31:01;;;;;;;3.40;1.50;;;;;;;;;;5028094;28;20369;-49
2021/06/14 12:33:31;;;;;;;2.90;1.05;;;;;;;;;;5031202;28;20097;-48
2021/06/14 12:35:58;;;;;;;5.50;1.45;;;;;;;;;;5018497;28;20030;-48
2021/06/14 12:38:25;;;;;;;2.13;1.00;;;;;;;;;;5016396;28;20713;-48
2021/06/14 12:40:51;;;;;;;1.83;0.98;;;;;;;;;;5021732;28;20030;-49
2021/06/14 12:43:17;;;;;;;4.80;1.02;;;;;;;;;;5025781;28;20113;-49
2021/06/14 12:45:44;;;;;;;2.97;1.23;;;;;;;;;;5022368;28;20033;-48
2021/06/14 12:48:11;;;;;;;4.38;1.05;;;;;;;;;;5024798;28;20537;-48
2021/06/14 12:50:47;;;;;;;6.93;0.98;;;;;;;;;;5023610;28;20018;-49
2021/06/14 12:53:18;;;;;;;2.70;1.08;;;;;;;;;;5016923;28;20489;-49
2021/06/14 12:55:44;;;;;;;6.20;1.00;;;;;;;;;;5024264;28;20033;-48
2021/06/14 12:58:12;;;;;;;1.50;0.90;;;;;;;;;;5025441;28;20113;-49
2021/06/14 13:00:40;;;;;;;3.08;1.30;;;;;;;;;;5021637;28;20025;-49
2021/06/14 13:03:06;;;;;;;1.38;0.82;;;;;;;;;;5029140;28;20041;-50
2021/06/14 13:05:34;;;;;;;3.40;1.02;;;;;;;;;;5031435;28;20033;-47
2021/06/14 13:08:04;;;;;;;1.33;0.68;;;;;;;;;;5024003;28;20407;-50
2021/06/14 13:10:34;;;;;;;4.22;1.42;;;;;;;;;;5020903;28;20493;-47
2021/06/14 13:13:11;;;;;;;3.10;0.60;;;;;;;;;;5026486;28;20547;-47
2021/06/14 13:15:37;;;;;;;1.77;0.90;;;;;;;;;;5018921;28;20080;-47
2021/06/14 13:18:03;;;;;;;2.58;0.90;;;;;;;;;;5023137;28;20041;-47
2021/06/14 13:20:34;;;;;;;2.97;0.85;;;;;;;;;;5023393;28;20025;-46
2021/06/14 13:23:08;;;;;;;2.47;0.90;;;;;;;;;;5027008;28;20104;-49
2021/06/14 13:25:36;;;;;;;2.35;0.70;;;;;;;;;;5015369;28;20071;-47
2021/06/14 13:28:02;;;;;;;3.72;0.85;;;;;;;;;;5015702;28;20033;-51
2021/06/14 13:30:36;;;;;;;6.78;1.70;;;;;;;;;;5023019;28;20129;-53
2021/06/14 13:33:04;;;;;;;2.00;0.88;;;;;;;;;;5011066;28;20034;-48
2021/06/14 13:35:30;;;;;;;5.20;0.80;;;;;;;;;;5015075;28;20848;-49
2021/06/14 13:37:57;;;;;;;3.33;0.80;;;;;;;;;;5012692;28;20485;-46
2021/06/14 13:40:26;;;;;;;2.42;0.82;;;;;;;;;;5015040;28;20033;-47
2021/06/14 13:42:54;;;;;;;1.13;0.70;;;;;;;;;;5022213;28;20041;-47
2021/06/14 13:45:40;;;;;;;2.80;0.93;;;;;;;;;;5003029;28;20052;-53
2021/06/14 13:48:07;;;;;;;1.55;0.70;;;;;;;;;;5005335;28;20025;-50
2021/06/14 13:50:44;;;;;;;2.08;0.90;;;;;;;;;;5014190;28;20076;-53
2021/06/14 13:53:13;;;;;;;6.90;0.93;;;;;;;;;;5022942;28;20116;-53
2021/06/14 13:55:47;;;;;;;2.20;0.70;;;;;;;;;;5019752;28;20021;-51
2021/06/14 13:58:15;;;;;;;2.17;0.60;;;;;;;;;;5013620;28;20080;-48
2021/06/14 14:00:41;;;;;;;6.10;1.27;;;;;;;;;;5015013;28;20034;-53
2021/06/14 14:03:07;;;;;;;2.80;0.90;;;;;;;;;;5026952;28;20116;-49
2021/06/14 14:05:34;;;;;;;4.82;0.98;;;;;;;;;;5016936;28;20041;-47
2021/06/14 14:08:01;;;;;;;3.08;0.85;;;;;;;;;;5016742;28;20521;-50
2021/06/14 14:10:28;;;;;;;2.08;0.80;;;;;;;;;;5031179;28;20445;-51
2021/06/14 14:12:54;;;;;;;1.80;0.68;;;;;;;;;;5026590;28;20071;-48
2021/06/14 14:15:21;;;;;;;3.42;1.00;;;;;;;;;;5027200;28;20033;-47
2021/06/14 14:17:47;;;;;;;1.95;0.70;;;;;;;;;;5024976;28;20038;-50
2021/06/14 14:20:16;;;;;;;4.28;0.75;;;;;;;;;;5032077;28;20498;-47
2021/06/14 14:22:42;;;;;;;0.93;0.60;;;;;;;;;;5008757;28;20120;-47
2021/06/14 14:25:08;;;;;;;2.03;0.68;;;;;;;;;;5007986;28;20117;-50
2021/06/14 14:27:35;;;;;;;2.85;0.95;;;;;;;;;;5020243;28;20113;-50
2021/06/14 14:30:01;;;;;;;1.20;0.63;;;;;;;;;;5016354;28;20029;-47
2021/06/14 14:32:27;;;;;;;1.90;0.93;;;;;;;;;;5019076;28;20046;-52
2021/06/14 14:34:58;;;;;;;1.95;0.98;;;;;;;;;;5025951;28;20110;-48
2021/06/14 14:37:24;;;;;;;2.77;1.13;;;;;;;;;;5015647;28;20041;-50
2021/06/14 14:40:05;;;;;;;2.58;0.82;;;;;;;;;;5009617;28;20629;-51
2021/06/14 14:42:32;;;;;;;2.35;0.77;;;;;;;;;;5010908;28;20040;-53
2021/06/14 14:44:58;;;;;;;2.17;0.90;;;;;;;;;;5021493;28;20389;-47
2021/06/14 14:47:24;;;;;;;4.07;1.38;;;;;;;;;;5024459;28;20034;-47
2021/06/14 14:49:50;;;;;;;2.15;0.88;;;;;;;;;;5017119;28;20030;-49